Terminal Aerodrome Forecast
Issued by NWS

Home | Current Version | Previous Version | Text Only | Print | Product List | Glossary Off
Versions: 1 2 3 4 5 6 7 8 9 10 11 12 13 14 15 16 17 18 19 20 21 22 23 24 25 26 27

000
FTUS42 KMHX 281130
TAFPGV
TAF
KPGV 281130Z 2812/2912 22006KT P6SM BKN090
     FM281800 23007KT P6SM SHRA VCTS BKN045CB
     FM282100 20008KT 6SM SHRA VCTS OVC040CB
     FM290300 VRB04KT 6SM BR BKN040
     FM290600 00000KT 3SM BR BKN015
      AMD LTD TO CLD VIS AND WIND=

USA.gov is the U.S. government's official web portal to all federal, state and local government web resources and services.